Time,TemperatureF,DewpointF,PressureIn,WindDirection,WindDirectionDegrees,WindSpeedMPH,WindSpeedGustMPH,Humidity,HourlyPrecipIn,Conditions,Clouds,dailyrainin,SoftwareType,DateUTC
2013-01-27 00:03:00,23.0,17.0,30.48,NE,38,0.0,0.0,76,0.00,,,0.00,,2013-01-27 05:03:00,
2013-01-27 00:12:00,23.0,17.0,30.48,NE,38,0.0,0.0,76,0.00,,,0.00,,2013-01-27 05:12:00,
2013-01-27 00:22:00,23.0,17.0,30.47,NE,38,0.0,0.0,76,0.00,,,0.00,,2013-01-27 05:22:00,
2013-01-27 00:32:00,23.0,17.0,30.48,NE,38,0.0,0.0,78,0.00,,,0.00,,2013-01-27 05:32:00,
2013-01-27 00:41:00,23.0,17.0,30.48,NE,38,0.0,0.0,78,0.00,,,0.00,,2013-01-27 05:41:00,
2013-01-27 00:52:00,22.0,16.0,30.47,NE,38,0.0,0.0,78,0.00,,,0.00,,2013-01-27 05:52:00,
2013-01-27 01:01:00,22.0,16.0,30.47,NE,38,0.0,0.0,78,0.00,,,0.00,,2013-01-27 06:01:00,
2013-01-27 01:11:00,22.0,16.0,30.47,NE,38,0.0,0.0,78,0.00,,,0.00,,2013-01-27 06:11:00,
2013-01-27 01:21:00,22.0,16.0,30.47,NE,38,0.0,0.0,78,0.00,,,0.00,,2013-01-27 06:21:00,
2013-01-27 01:32:00,22.0,16.0,30.47,NE,38,0.0,0.0,79,0.00,,,0.00,,2013-01-27 06:32:00,
2013-01-27 01:42:00,22.0,16.0,30.47,NE,38,0.0,0.0,79,0.00,,,0.00,,2013-01-27 06:42:00,
2013-01-27 01:52:00,21.0,16.0,30.47,NE,38,0.0,0.0,79,0.00,,,0.00,,2013-01-27 06:52:00,
2013-01-27 02:01:00,22.0,16.0,30.46,NE,38,0.0,0.0,79,0.00,,,0.00,,2013-01-27 07:01:00,
2013-01-27 02:14:00,22.0,16.0,30.46,NE,38,0.0,0.0,79,0.00,,,0.00,,2013-01-27 07:14:00,
2013-01-27 02:21:00,21.0,16.0,30.47,NE,38,0.0,0.0,79,0.00,,,0.00,,2013-01-27 07:21:00,
2013-01-27 02:31:00,21.0,16.0,30.48,NE,38,0.0,0.0,81,0.00,,,0.00,,2013-01-27 07:31:00,
2013-01-27 02:41:00,21.0,16.0,30.48,NE,38,0.0,0.0,81,0.00,,,0.00,,2013-01-27 07:41:00,
2013-01-27 02:52:00,21.0,16.0,30.48,NE,35,0.0,0.0,81,0.00,,,0.00,,2013-01-27 07:52:00,
2013-01-27 03:01:00,21.0,16.0,30.48,NE,35,0.0,0.0,81,0.00,,,0.00,,2013-01-27 08:01:00,
2013-01-27 03:11:00,21.0,16.0,30.48,NE,35,0.0,0.0,81,0.00,,,0.00,,2013-01-27 08:11:00,
2013-01-27 03:22:00,21.0,16.0,30.48,NE,35,0.0,0.0,82,0.00,,,0.00,,2013-01-27 08:22:00,
2013-01-27 03:32:00,21.0,16.0,30.47,NE,35,0.0,0.0,82,0.00,,,0.00,,2013-01-27 08:32:00,
2013-01-27 03:42:00,21.0,16.0,30.47,NE,35,0.0,0.0,82,0.00,,,0.00,,2013-01-27 08:42:00,
2013-01-27 03:52:00,21.0,16.0,30.47,ENE,61,0.0,0.0,82,0.00,,,0.00,,2013-01-27 08:52:00,
2013-01-27 04:02:00,21.0,16.0,30.47,ESE,104,2.0,5.0,82,0.00,,,0.00,,2013-01-27 09:02:00,
2013-01-27 04:11:00,21.0,16.0,30.47,ESE,104,2.0,5.0,82,0.00,,,0.00,,2013-01-27 09:11:00,
2013-01-27 04:21:00,21.0,17.0,30.46,East,79,3.0,6.0,84,0.00,,,0.00,,2013-01-27 09:21:00,
2013-01-27 04:32:00,20.0,16.0,30.46,NE,34,0.0,0.0,84,0.00,,,0.00,,2013-01-27 09:32:00,
2013-01-27 04:41:00,20.0,16.0,30.46,NE,34,0.0,0.0,84,0.00,,,0.00,,2013-01-27 09:41:00,
2013-01-27 04:52:00,21.0,17.0,30.45,ENE,71,0.0,0.0,84,0.00,,,0.00,,2013-01-27 09:52:00,
2013-01-27 05:01:00,20.0,16.0,30.45,ENE,71,0.0,0.0,85,0.00,,,0.00,,2013-01-27 10:01:00,
2013-01-27 05:11:00,20.0,16.0,30.45,ENE,71,0.0,0.0,85,0.00,,,0.00,,2013-01-27 10:11:00,
2013-01-27 05:21:00,20.0,16.0,30.45,ENE,71,0.0,0.0,85,0.00,,,0.00,,2013-01-27 10:21:00,
2013-01-27 05:32:00,20.0,16.0,30.45,ENE,71,0.0,0.0,85,0.00,,,0.00,,2013-01-27 10:32:00,
2013-01-27 05:42:00,20.0,16.0,30.45,ENE,71,0.0,0.0,85,0.00,,,0.00,,2013-01-27 10:42:00,
2013-01-27 05:52:00,21.0,18.0,30.45,East,101,1.0,5.0,87,0.00,,,0.00,,2013-01-27 10:52:00,
2013-01-27 06:01:00,20.0,17.0,30.45,ENE,65,0.0,0.0,87,0.00,,,0.00,,2013-01-27 11:01:00,
2013-01-27 06:11:00,20.0,17.0,30.45,NE,42,2.0,3.0,87,0.00,,,0.00,,2013-01-27 11:11:00,
2013-01-27 06:21:00,20.0,17.0,30.45,NE,42,2.0,3.0,87,0.00,,,0.00,,2013-01-27 11:21:00,
2013-01-27 06:32:00,20.0,17.0,30.45,NNE,31,0.0,0.0,87,0.00,,,0.00,,2013-01-27 11:32:00,
2013-01-27 06:42:00,20.0,17.0,30.45,NNE,31,0.0,0.0,87,0.00,,,0.00,,2013-01-27 11:42:00,
2013-01-27 06:52:00,20.0,17.0,30.46,NE,38,0.0,0.0,88,0.00,,,0.00,,2013-01-27 11:52:00,
2013-01-27 07:02:00,21.0,18.0,30.46,NE,38,0.0,0.0,88,0.00,,,0.00,,2013-01-27 12:02:00,
2013-01-27 07:12:00,21.0,18.0,30.46,NE,38,0.0,0.0,88,0.00,,,0.00,,2013-01-27 12:12:00,
2013-01-27 07:21:00,20.0,17.0,30.46,East,82,1.0,2.0,88,0.00,,,0.00,,2013-01-27 12:21:00,
2013-01-27 07:32:00,20.0,17.0,30.47,East,82,0.0,0.0,88,0.00,,,0.00,,2013-01-27 12:32:00,
2013-01-27 07:42:00,20.0,17.0,30.47,East,82,0.0,0.0,88,0.00,,,0.00,,2013-01-27 12:42:00,
2013-01-27 07:52:00,20.0,17.0,30.47,NE,47,1.0,0.0,88,0.00,,,0.00,,2013-01-27 12:52:00,
2013-01-27 08:02:00,20.0,18.0,30.47,NE,47,0.0,0.0,90,0.00,,,0.00,,2013-01-27 13:02:00,
2013-01-27 08:11:00,20.0,18.0,30.47,NE,47,0.0,0.0,90,0.00,,,0.00,,2013-01-27 13:11:00,
2013-01-27 08:22:00,20.0,18.0,30.46,NE,55,0.0,0.0,90,0.00,,,0.00,,2013-01-27 13:22:00,
2013-01-27 08:32:00,20.0,18.0,30.46,NE,55,0.0,0.0,90,0.00,,,0.00,,2013-01-27 13:32:00,
2013-01-27 08:42:00,21.0,19.0,30.47,ENE,78,0.0,5.0,92,0.00,,,0.00,,2013-01-27 13:42:00,
2013-01-27 08:52:00,21.0,19.0,30.47,ENE,78,0.0,5.0,92,0.00,,,0.00,,2013-01-27 13:52:00,
2013-01-27 09:02:00,22.0,20.0,30.47,East,81,2.0,5.0,92,0.00,,,0.00,,2013-01-27 14:02:00,
2013-01-27 09:12:00,22.0,20.0,30.47,East,81,2.0,5.0,92,0.00,,,0.00,,2013-01-27 14:12:00,
2013-01-27 09:22:00,22.0,20.0,30.47,East,79,0.0,0.0,92,0.00,,,0.00,,2013-01-27 14:22:00,
2013-01-27 09:32:00,23.0,21.0,30.47,East,79,0.0,0.0,92,0.00,,,0.00,,2013-01-27 14:32:00,
2013-01-27 09:42:00,23.0,21.0,30.47,East,79,0.0,0.0,92,0.00,,,0.00,,2013-01-27 14:42:00,
2013-01-27 09:53:00,23.0,21.0,30.47,NE,54,0.0,0.0,91,0.00,,,0.00,,2013-01-27 14:53:00,
2013-01-27 10:02:00,24.0,22.0,30.46,NE,54,0.0,0.0,92,0.00,,,0.00,,2013-01-27 15:02:00,
2013-01-27 10:12:00,24.0,22.0,30.46,NE,54,0.0,0.0,92,0.00,,,0.00,,2013-01-27 15:12:00,
2013-01-27 10:22:00,25.0,22.0,30.45,NE,54,3.0,5.0,90,0.00,,,0.00,,2013-01-27 15:22:00,
2013-01-27 10:32:00,25.0,22.0,30.46,NE,51,0.0,0.0,90,0.00,,,0.00,,2013-01-27 15:32:00,
2013-01-27 10:42:00,25.0,22.0,30.46,NE,51,0.0,0.0,90,0.00,,,0.00,,2013-01-27 15:42:00,
2013-01-27 10:53:00,26.0,23.0,30.46,NE,51,0.0,0.0,90,0.00,,,0.00,,2013-01-27 15:53:00,
2013-01-27 11:02:00,27.0,24.0,30.46,East,101,2.0,6.0,90,0.00,,,0.00,,2013-01-27 16:02:00,
2013-01-27 11:12:00,27.0,24.0,30.46,East,101,2.0,6.0,90,0.00,,,0.00,,2013-01-27 16:12:00,
2013-01-27 11:22:00,28.0,25.0,30.45,East,82,1.0,5.0,88,0.00,,,0.00,,2013-01-27 16:22:00,
2013-01-27 11:32:00,29.0,26.0,30.45,ESE,102,1.0,5.0,87,0.00,,,0.00,,2013-01-27 16:32:00,
2013-01-27 11:42:00,29.0,26.0,30.45,ESE,102,1.0,5.0,87,0.00,,,0.00,,2013-01-27 16:42:00,
2013-01-27 11:53:00,30.0,26.0,30.45,ENE,66,0.0,0.0,85,0.00,,,0.00,,2013-01-27 16:53:00,
2013-01-27 12:02:00,30.0,26.0,30.46,ENE,66,0.0,0.0,85,0.00,,,0.00,,2013-01-27 17:02:00,
2013-01-27 12:12:00,30.0,26.0,30.46,ENE,66,0.0,0.0,85,0.00,,,0.00,,2013-01-27 17:12:00,
2013-01-27 12:22:00,32.0,27.0,30.45,ENE,66,0.0,0.0,82,0.00,,,0.00,,2013-01-27 17:22:00,
2013-01-27 12:32:00,33.0,28.0,30.44,East,96,5.0,7.0,81,0.00,,,0.00,,2013-01-27 17:32:00,
2013-01-27 12:42:00,33.0,28.0,30.44,East,96,5.0,7.0,81,0.00,,,0.00,,2013-01-27 17:42:00,
2013-01-27 12:53:00,33.0,27.0,30.43,ESE,102,3.0,7.0,78,0.00,,,0.00,,2013-01-27 17:53:00,
2013-01-27 13:02:00,34.0,28.0,30.42,ESE,104,0.0,0.0,78,0.00,,,0.00,,2013-01-27 18:02:00,
2013-01-27 13:12:00,34.0,28.0,30.42,ESE,104,0.0,0.0,78,0.00,,,0.00,,2013-01-27 18:12:00,
2013-01-27 13:22:00,35.0,28.0,30.40,East,101,2.0,2.0,75,0.01,,,0.01,,2013-01-27 18:22:00,
2013-01-27 13:32:00,36.0,28.0,30.41,East,89,0.0,2.0,73,0.01,,,0.01,,2013-01-27 18:32:00,
2013-01-27 13:42:00,36.0,28.0,30.41,East,89,0.0,2.0,73,0.01,,,0.01,,2013-01-27 18:42:00,
2013-01-27 13:52:00,36.0,27.0,30.40,ESE,120,0.0,0.0,69,0.01,,,0.01,,2013-01-27 18:52:00,
2013-01-27 14:02:00,37.0,27.0,30.40,SW,226,1.0,0.0,67,0.01,,,0.01,,2013-01-27 19:02:00,
2013-01-27 14:12:00,37.0,27.0,30.40,SW,226,1.0,0.0,67,0.01,,,0.01,,2013-01-27 19:12:00,
2013-01-27 14:22:00,37.0,27.0,30.38,ESE,117,0.0,0.0,66,0.00,,,0.01,,2013-01-27 19:22:00,
2013-01-27 14:32:00,37.0,26.0,30.37,ESE,104,1.0,6.0,65,0.00,,,0.01,,2013-01-27 19:32:00,
2013-01-27 14:42:00,37.0,26.0,30.37,ESE,104,1.0,6.0,65,0.00,,,0.01,,2013-01-27 19:42:00,
2013-01-27 14:52:00,38.0,27.0,30.36,East,79,2.0,5.0,63,0.00,,,0.01,,2013-01-27 19:52:00,
2013-01-27 15:02:00,38.0,27.0,30.35,ESE,102,1.0,5.0,63,0.00,,,0.01,,2013-01-27 20:02:00,
2013-01-27 15:12:00,38.0,27.0,30.35,ESE,102,1.0,5.0,63,0.00,,,0.01,,2013-01-27 20:12:00,
2013-01-27 15:22:00,38.0,26.0,30.35,East,99,1.0,7.0,61,0.01,,,0.02,,2013-01-27 20:22:00,
2013-01-27 15:33:00,38.0,26.0,30.34,ESE,117,0.0,5.0,61,0.01,,,0.02,,2013-01-27 20:33:00,
2013-01-27 15:42:00,38.0,26.0,30.34,ESE,117,0.0,5.0,61,0.01,,,0.02,,2013-01-27 20:42:00,
2013-01-27 15:52:00,38.0,26.0,30.34,East,89,2.0,6.0,61,0.01,,,0.02,,2013-01-27 20:52:00,
2013-01-27 16:02:00,38.0,26.0,30.32,East,81,5.0,7.0,61,0.01,,,0.02,,2013-01-27 21:02:00,
2013-01-27 16:12:00,38.0,26.0,30.32,East,81,5.0,7.0,61,0.01,,,0.02,,2013-01-27 21:12:00,
2013-01-27 16:22:00,38.0,26.0,30.33,ENE,73,1.0,6.0,61,0.00,,,0.02,,2013-01-27 21:22:00,
2013-01-27 16:33:00,38.0,26.0,30.33,ENE,72,0.0,0.0,61,0.00,,,0.02,,2013-01-27 21:33:00,
2013-01-27 16:42:00,38.0,26.0,30.33,ENE,72,0.0,0.0,61,0.00,,,0.02,,2013-01-27 21:42:00,
2013-01-27 16:52:00,38.0,26.0,30.32,ESE,114,0.0,5.0,61,0.00,,,0.02,,2013-01-27 21:52:00,
2013-01-27 17:02:00,38.0,26.0,30.31,ESE,121,0.0,0.0,61,0.00,,,0.02,,2013-01-27 22:02:00,
2013-01-27 17:12:00,38.0,26.0,30.31,ESE,121,0.0,0.0,61,0.00,,,0.02,,2013-01-27 22:12:00,
2013-01-27 17:22:00,38.0,26.0,30.30,East,86,0.0,0.0,61,0.00,,,0.02,,2013-01-27 22:22:00,
2013-01-27 17:32:00,38.0,26.0,30.30,East,95,0.0,0.0,61,0.00,,,0.02,,2013-01-27 22:32:00,
2013-01-27 17:42:00,38.0,26.0,30.30,East,95,0.0,0.0,61,0.00,,,0.02,,2013-01-27 22:42:00,
2013-01-27 17:52:00,38.0,26.0,30.31,ENE,78,0.0,0.0,62,0.00,,,0.02,,2013-01-27 22:52:00,
2013-01-27 18:02:00,38.0,26.0,30.30,ENE,78,0.0,0.0,62,0.00,,,0.02,,2013-01-27 23:02:00,
2013-01-27 18:12:00,38.0,26.0,30.30,ENE,78,0.0,0.0,62,0.00,,,0.02,,2013-01-27 23:12:00,
2013-01-27 18:22:00,38.0,27.0,30.30,ENE,78,0.0,0.0,63,0.00,,,0.02,,2013-01-27 23:22:00,
2013-01-27 18:32:00,37.0,26.0,30.30,ENE,78,0.0,0.0,63,0.00,,,0.02,,2013-01-27 23:32:00,
2013-01-27 18:42:00,37.0,26.0,30.30,ENE,78,0.0,0.0,63,0.00,,,0.02,,2013-01-27 23:42:00,
2013-01-27 18:53:00,38.0,27.0,30.29,ENE,78,0.0,0.0,65,0.00,,,0.02,,2013-01-27 23:53:00,
2013-01-27 19:02:00,37.0,26.0,30.29,ESE,116,0.0,3.0,65,0.00,,,0.02,,2013-01-28 00:02:00,
2013-01-27 19:11:00,37.0,26.0,30.29,ESE,116,0.0,3.0,65,0.00,,,0.02,,2013-01-28 00:11:00,
2013-01-27 19:21:00,37.0,28.0,30.29,SSW,208,0.0,6.0,69,0.00,,,0.02,,2013-01-28 00:21:00,
2013-01-27 19:32:00,37.0,28.0,30.29,SSW,205,0.0,2.0,70,0.01,,,0.03,,2013-01-28 00:32:00,
2013-01-27 19:42:00,37.0,28.0,30.29,SSW,205,0.0,2.0,70,0.01,,,0.03,,2013-01-28 00:42:00,
2013-01-27 19:52:00,37.0,29.0,30.28,SE,144,0.0,0.0,73,0.01,,,0.03,,2013-01-28 00:52:00,
2013-01-27 20:02:00,38.0,31.0,30.27,SSW,195,1.0,5.0,75,0.02,,,0.04,,2013-01-28 01:02:00,
2013-01-27 20:11:00,38.0,31.0,30.27,SSW,195,1.0,5.0,75,0.02,,,0.04,,2013-01-28 01:11:00,
2013-01-27 20:22:00,38.0,32.0,30.27,SW,223,2.0,5.0,78,0.04,,,0.06,,2013-01-28 01:22:00,
2013-01-27 20:33:00,38.0,32.0,30.27,SW,214,6.0,7.0,78,0.03,,,0.06,,2013-01-28 01:33:00,
2013-01-27 20:42:00,38.0,32.0,30.27,SW,214,6.0,7.0,78,0.03,,,0.06,,2013-01-28 01:42:00,
2013-01-27 20:52:00,37.0,32.0,30.27,SSW,213,5.0,7.0,81,0.05,,,0.08,,2013-01-28 01:52:00,
2013-01-27 21:02:00,37.0,32.0,30.27,SE,145,3.0,6.0,82,0.04,,,0.08,,2013-01-28 02:02:00,
2013-01-27 21:11:00,37.0,32.0,30.27,SE,145,3.0,6.0,82,0.04,,,0.08,,2013-01-28 02:11:00,
2013-01-27 21:22:00,37.0,33.0,30.26,South,184,0.0,0.0,85,0.04,,,0.10,,2013-01-28 02:22:00,
2013-01-27 21:32:00,37.0,34.0,30.26,SSW,209,1.0,3.0,87,0.05,,,0.11,,2013-01-28 02:32:00,
2013-01-27 21:42:00,37.0,34.0,30.26,SSW,209,1.0,3.0,87,0.05,,,0.11,,2013-01-28 02:42:00,
2013-01-27 21:52:00,38.0,35.0,30.25,SW,214,3.0,7.0,89,0.04,,,0.12,,2013-01-28 02:52:00,
2013-01-27 22:02:00,37.0,34.0,30.24,SSW,202,3.0,6.0,90,0.05,,,0.13,,2013-01-28 03:02:00,
2013-01-27 22:12:00,37.0,34.0,30.24,SSW,202,3.0,6.0,90,0.05,,,0.13,,2013-01-28 03:12:00,
2013-01-27 22:22:00,38.0,36.0,30.24,SW,226,5.0,5.0,93,0.05,,,0.15,,2013-01-28 03:22:00,
2013-01-27 22:32:00,38.0,37.0,30.24,SW,229,6.0,7.0,95,0.05,,,0.16,,2013-01-28 03:32:00,
2013-01-27 22:42:00,38.0,37.0,30.24,SW,229,6.0,7.0,95,0.05,,,0.16,,2013-01-28 03:42:00,
2013-01-27 22:53:00,38.0,37.0,30.23,SSW,209,3.0,7.0,95,0.06,,,0.18,,2013-01-28 03:53:00,
2013-01-27 23:02:00,38.0,37.0,30.23,SW,227,5.0,6.0,95,0.06,,,0.19,,2013-01-28 04:02:00,
2013-01-27 23:11:00,38.0,37.0,30.23,SW,227,5.0,6.0,95,0.06,,,0.19,,2013-01-28 04:11:00,
2013-01-27 23:22:00,38.0,37.0,30.23,SW,217,5.0,6.0,95,0.06,,,0.20,,2013-01-28 04:22:00,
2013-01-27 23:32:00,38.0,37.0,30.22,SW,219,5.0,6.0,95,0.07,,,0.23,,2013-01-28 04:32:00,
2013-01-27 23:42:00,38.0,37.0,30.22,SW,219,5.0,6.0,95,0.07,,,0.23,,2013-01-28 04:42:00,
2013-01-27 23:52:00,39.0,38.0,30.21,SSW,213,2.0,5.0,95,0.06,,,0.24,,2013-01-28 04:52:00,